Time,TemperatureF,DewpointF,PressureIn,WindDirection,WindDirectionDegrees,WindSpeedMPH,WindSpeedGustMPH,Humidity,HourlyPrecipIn,Conditions,Clouds,dailyrainin,SoftwareType,DateUTC
2013-06-01 00:01:00,55.0,50.3,29.56,WSW,237,3.0,4.0,84,0.00,,,0.02,Wunderground v.1.15,2013-06-01 05:01:00,
2013-06-01 00:07:00,54.5,50.1,29.55,SW,228,4.0,4.0,85,0.00,,,0.00,Wunderground v.1.15,2013-06-01 05:07:00,
2013-06-01 00:13:00,54.1,50.3,29.55,SSW,211,4.0,4.0,87,0.00,,,0.00,Wunderground v.1.15,2013-06-01 05:13:00,
2013-06-01 00:19:00,53.7,49.9,29.55,SSW,198,2.0,4.0,87,0.00,,,0.00,Wunderground v.1.15,2013-06-01 05:19:00,
2013-06-01 00:24:00,53.2,50.0,29.55,SSW,199,3.0,4.0,89,0.00,,,0.00,Wunderground v.1.15,2013-06-01 05:24:00,
2013-06-01 00:30:00,53.0,49.8,29.55,SSW,199,3.0,4.0,89,0.00,,,0.00,Wunderground v.1.15,2013-06-01 05:30:00,
2013-06-01 00:36:00,53.0,50.4,29.55,South,182,3.0,3.0,91,0.00,,,0.00,Wunderground v.1.15,2013-06-01 05:36:00,
2013-06-01 00:41:00,53.0,50.1,29.55,SSW,195,3.0,4.0,90,0.00,,,0.00,Wunderground v.1.15,2013-06-01 05:41:00,
2013-06-01 00:47:00,53.1,50.2,29.54,SW,220,3.0,4.0,90,0.00,,,0.00,Wunderground v.1.15,2013-06-01 05:47:00,
2013-06-01 00:52:00,53.1,50.2,29.54,SW,225,4.0,4.0,90,0.00,,,0.00,Wunderground v.1.15,2013-06-01 05:52:00,
2013-06-01 00:58:00,53.1,50.2,29.54,SW,227,7.0,7.0,90,0.00,,,0.00,Wunderground v.1.15,2013-06-01 05:58:00,
2013-06-01 01:04:00,53.5,50.3,29.54,WSW,251,11.0,11.0,89,0.00,,,0.00,Wunderground v.1.15,2013-06-01 06:04:00,
2013-06-01 01:10:00,54.4,50.9,29.54,SW,235,9.0,13.0,88,0.00,,,0.00,Wunderground v.1.15,2013-06-01 06:10:00,
2013-06-01 01:15:00,54.9,50.8,29.54,SW,236,10.0,10.0,86,0.00,,,0.00,Wunderground v.1.15,2013-06-01 06:15:00,
2013-06-01 01:21:00,54.9,50.8,29.54,WSW,243,6.0,10.0,86,0.00,,,0.00,Wunderground v.1.15,2013-06-01 06:21:00,
2013-06-01 01:27:00,54.7,50.6,29.54,WSW,244,8.0,9.0,86,0.00,,,0.00,Wunderground v.1.15,2013-06-01 06:27:00,
2013-06-01 01:32:00,54.5,50.7,29.54,SW,234,7.0,7.0,87,0.00,,,0.00,Wunderground v.1.15,2013-06-01 06:32:00,
2013-06-01 01:38:00,54.4,50.6,29.54,SW,231,8.0,10.0,87,0.00,,,0.00,Wunderground v.1.15,2013-06-01 06:38:00,
2013-06-01 01:44:00,54.2,50.4,29.54,SW,234,9.0,9.0,87,0.00,,,0.00,Wunderground v.1.15,2013-06-01 06:44:00,
2013-06-01 01:50:00,54.1,50.3,29.54,SW,215,6.0,9.0,87,0.00,,,0.00,Wunderground v.1.15,2013-06-01 06:50:00,
2013-06-01 01:56:00,53.8,50.0,29.55,SSW,197,3.0,6.0,87,0.00,,,0.00,Wunderground v.1.15,2013-06-01 06:56:00,
2013-06-01 02:01:00,53.5,50.0,29.54,SSW,205,4.0,6.0,88,0.00,,,0.00,Wunderground v.1.15,2013-06-01 07:01:00,
2013-06-01 02:06:00,53.3,49.8,29.54,SSW,192,3.0,4.0,88,0.00,,,0.00,Wunderground v.1.15,2013-06-01 07:06:00,
2013-06-01 02:11:00,53.0,49.5,29.54,SSW,193,4.0,5.0,88,0.00,,,0.00,Wunderground v.1.15,2013-06-01 07:11:00,
2013-06-01 02:16:00,52.7,49.5,29.54,SSW,211,3.0,4.0,89,0.00,,,0.00,Wunderground v.1.15,2013-06-01 07:16:00,
2013-06-01 02:21:00,52.5,49.4,29.53,SW,216,2.0,5.0,89,0.00,,,0.00,Wunderground v.1.15,2013-06-01 07:21:00,
2013-06-01 02:26:00,52.3,49.2,29.53,SW,225,3.0,4.0,89,0.00,,,0.00,Wunderground v.1.15,2013-06-01 07:26:00,
2013-06-01 02:31:00,52.1,49.0,29.54,SW,228,3.0,4.0,89,0.00,,,0.00,Wunderground v.1.15,2013-06-01 07:31:00,
2013-06-01 02:36:00,51.8,49.0,29.54,SSW,213,4.0,4.0,90,0.00,,,0.00,Wunderground v.1.15,2013-06-01 07:36:00,
2013-06-01 02:41:00,51.6,48.8,29.54,SSW,199,3.0,4.0,90,0.00,,,0.00,Wunderground v.1.15,2013-06-01 07:41:00,
2013-06-01 02:46:00,51.3,48.8,29.54,SSW,192,2.0,4.0,91,0.00,,,0.00,Wunderground v.1.15,2013-06-01 07:46:00,
2013-06-01 02:51:00,51.1,48.6,29.54,South,190,3.0,4.0,91,0.00,,,0.00,Wunderground v.1.15,2013-06-01 07:51:00,
2013-06-01 02:57:00,50.9,48.4,29.54,South,171,4.0,4.0,91,0.00,,,0.00,Wunderground v.1.15,2013-06-01 07:57:00,
2013-06-01 03:02:00,50.6,48.4,29.54,SSE,152,3.0,5.0,92,0.00,,,0.00,Wunderground v.1.15,2013-06-01 08:02:00,
2013-06-01 03:07:00,50.6,48.4,29.54,SSE,150,3.0,5.0,92,0.00,,,0.00,Wunderground v.1.15,2013-06-01 08:07:00,
2013-06-01 03:12:00,50.5,48.3,29.54,SSE,168,4.0,5.0,92,0.00,,,0.00,Wunderground v.1.15,2013-06-01 08:12:00,
2013-06-01 03:17:00,50.3,48.1,29.53,South,173,5.0,6.0,92,0.00,,,0.00,Wunderground v.1.15,2013-06-01 08:17:00,
2013-06-01 03:22:00,50.2,48.0,29.53,South,190,4.0,6.0,92,0.00,,,0.00,Wunderground v.1.15,2013-06-01 08:22:00,
2013-06-01 03:27:00,50.0,47.8,29.54,SSW,195,3.0,5.0,92,0.00,,,0.00,Wunderground v.1.15,2013-06-01 08:27:00,
2013-06-01 03:32:00,50.1,48.2,29.54,South,188,4.0,6.0,93,0.00,,,0.00,Wunderground v.1.15,2013-06-01 08:32:00,
2013-06-01 03:37:00,50.1,48.2,29.55,South,186,2.0,5.0,93,0.00,,,0.00,Wunderground v.1.15,2013-06-01 08:37:00,
2013-06-01 03:42:00,50.1,48.2,29.55,South,186,2.0,5.0,93,0.00,,,0.00,Wunderground v.1.15,2013-06-01 08:42:00,
2013-06-01 03:47:00,50.1,48.2,29.55,South,186,2.0,3.0,93,0.00,,,0.00,Wunderground v.1.15,2013-06-01 08:47:00,
2013-06-01 03:52:00,50.1,48.2,29.55,South,186,1.0,3.0,93,0.00,,,0.00,Wunderground v.1.15,2013-06-01 08:52:00,
2013-06-01 03:57:00,50.0,47.8,29.55,South,184,2.0,3.0,92,0.00,,,0.00,Wunderground v.1.15,2013-06-01 08:57:00,
2013-06-01 04:02:00,49.8,47.9,29.54,South,172,2.0,3.0,93,0.00,,,0.00,Wunderground v.1.15,2013-06-01 09:02:00,
2013-06-01 04:07:00,49.6,47.7,29.54,South,172,2.0,2.0,93,0.00,,,0.00,Wunderground v.1.15,2013-06-01 09:07:00,
2013-06-01 04:12:00,49.6,47.9,29.54,South,172,2.0,2.0,94,0.00,,,0.00,Wunderground v.1.15,2013-06-01 09:12:00,
2013-06-01 04:17:00,49.6,47.9,29.54,SSW,196,3.0,4.0,94,0.00,,,0.00,Wunderground v.1.15,2013-06-01 09:17:00,
2013-06-01 04:22:00,49.7,48.0,29.53,SSW,205,4.0,5.0,94,0.00,,,0.00,Wunderground v.1.15,2013-06-01 09:22:00,
2013-06-01 04:27:00,50.1,48.7,29.53,South,184,7.0,7.0,95,0.00,,,0.00,Wunderground v.1.15,2013-06-01 09:27:00,
2013-06-01 04:32:00,50.5,49.1,29.54,South,179,4.0,7.0,95,0.00,,,0.00,Wunderground v.1.15,2013-06-01 09:32:00,
2013-06-01 04:37:00,50.7,49.3,29.54,SSW,198,4.0,6.0,95,0.00,,,0.00,Wunderground v.1.15,2013-06-01 09:37:00,
2013-06-01 04:42:00,50.9,49.5,29.54,SSW,195,4.0,6.0,95,0.00,,,0.00,Wunderground v.1.15,2013-06-01 09:42:00,
2013-06-01 04:47:00,51.2,50.1,29.54,SSW,206,6.0,8.0,96,0.00,,,0.00,Wunderground v.1.15,2013-06-01 09:47:00,
2013-06-01 04:52:00,51.6,50.5,29.54,SSW,192,5.0,8.0,96,0.00,,,0.00,Wunderground v.1.15,2013-06-01 09:52:00,
2013-06-01 04:57:00,52.0,50.9,29.54,SW,214,5.0,8.0,96,0.00,,,0.00,Wunderground v.1.15,2013-06-01 09:57:00,
2013-06-01 05:02:00,52.3,51.2,29.54,SSW,192,8.0,8.0,96,0.00,,,0.00,Wunderground v.1.15,2013-06-01 10:02:00,
2013-06-01 05:07:00,52.6,51.5,29.54,SSW,205,6.0,9.0,96,0.00,,,0.00,Wunderground v.1.15,2013-06-01 10:07:00,
2013-06-01 05:12:00,52.8,51.7,29.54,SW,225,8.0,10.0,96,0.00,,,0.00,Wunderground v.1.15,2013-06-01 10:12:00,
2013-06-01 05:17:00,53.0,51.9,29.54,SW,227,6.0,8.0,96,0.00,,,0.00,Wunderground v.1.15,2013-06-01 10:17:00,
2013-06-01 05:22:00,53.1,51.7,29.54,SW,221,4.0,8.0,95,0.00,,,0.00,Wunderground v.1.15,2013-06-01 10:22:00,
2013-06-01 05:27:00,53.2,51.8,29.54,SSW,212,5.0,8.0,95,0.00,,,0.00,Wunderground v.1.15,2013-06-01 10:27:00,
2013-06-01 05:32:00,53.3,52.2,29.54,SW,217,5.0,9.0,96,0.00,,,0.00,Wunderground v.1.15,2013-06-01 10:32:00,
2013-06-01 05:37:00,53.5,52.4,29.54,SSW,213,4.0,7.0,96,0.00,,,0.00,Wunderground v.1.15,2013-06-01 10:37:00,
2013-06-01 05:42:00,53.6,52.5,29.55,SW,214,3.0,7.0,96,0.00,,,0.00,Wunderground v.1.15,2013-06-01 10:42:00,
2013-06-01 05:47:00,53.7,52.6,29.55,SW,225,4.0,8.0,96,0.00,,,0.00,Wunderground v.1.15,2013-06-01 10:47:00,
2013-06-01 05:52:00,53.7,52.6,29.55,SW,216,5.0,8.0,96,0.00,,,0.00,Wunderground v.1.15,2013-06-01 10:52:00,
2013-06-01 05:57:00,53.9,52.8,29.55,SW,216,5.0,8.0,96,0.00,,,0.00,Wunderground v.1.15,2013-06-01 10:57:00,
2013-06-01 06:02:00,53.9,52.8,29.55,SSW,194,4.0,8.0,96,0.00,,,0.00,Wunderground v.1.15,2013-06-01 11:02:00,
2013-06-01 06:07:00,54.0,52.9,29.55,SSW,210,4.0,7.0,96,0.00,,,0.00,Wunderground v.1.15,2013-06-01 11:07:00,
2013-06-01 06:12:00,54.1,53.0,29.55,SW,224,5.0,7.0,96,0.00,,,0.00,Wunderground v.1.15,2013-06-01 11:12:00,
2013-06-01 06:17:00,54.2,53.1,29.55,SW,221,3.0,6.0,96,0.00,,,0.00,Wunderground v.1.15,2013-06-01 11:17:00,
2013-06-01 06:22:00,54.3,53.2,29.55,SW,215,3.0,6.0,96,0.00,,,0.00,Wunderground v.1.15,2013-06-01 11:22:00,
2013-06-01 06:27:00,54.4,53.3,29.55,SW,217,4.0,7.0,96,0.00,,,0.00,Wunderground v.1.15,2013-06-01 11:27:00,
2013-06-01 06:32:00,54.5,53.7,29.55,SW,216,4.0,8.0,97,0.00,,,0.00,Wunderground v.1.15,2013-06-01 11:32:00,
2013-06-01 06:37:00,54.5,53.4,29.56,SW,217,6.0,8.0,96,0.00,,,0.00,Wunderground v.1.15,2013-06-01 11:37:00,
2013-06-01 06:42:00,54.6,53.8,29.56,SW,215,5.0,8.0,97,0.00,,,0.00,Wunderground v.1.15,2013-06-01 11:42:00,
2013-06-01 06:47:00,54.7,53.9,29.56,SSW,213,5.0,8.0,97,0.00,,,0.00,Wunderground v.1.15,2013-06-01 11:47:00,
2013-06-01 06:52:00,54.8,54.0,29.56,SW,227,6.0,9.0,97,0.00,,,0.00,Wunderground v.1.15,2013-06-01 11:52:00,
2013-06-01 06:57:00,54.9,54.1,29.56,SSW,195,5.0,7.0,97,0.00,,,0.00,Wunderground v.1.15,2013-06-01 11:57:00,
2013-06-01 07:02:00,55.0,54.2,29.56,SSW,211,4.0,8.0,97,0.00,,,0.00,Wunderground v.1.15,2013-06-01 12:02:00,
2013-06-01 07:07:00,55.1,54.3,29.57,SSW,213,4.0,7.0,97,0.00,,,0.00,Wunderground v.1.15,2013-06-01 12:07:00,
2013-06-01 07:12:00,55.1,54.3,29.57,SSW,203,4.0,7.0,97,0.00,,,0.00,Wunderground v.1.15,2013-06-01 12:12:00,
2013-06-01 07:17:00,55.3,54.5,29.58,SSW,201,4.0,6.0,97,0.00,,,0.00,Wunderground v.1.15,2013-06-01 12:17:00,
2013-06-01 07:22:00,55.4,54.6,29.58,SSW,194,3.0,6.0,97,0.00,,,0.00,Wunderground v.1.15,2013-06-01 12:22:00,
2013-06-01 07:27:00,55.5,54.7,29.57,South,191,2.0,4.0,97,0.00,,,0.00,Wunderground v.1.15,2013-06-01 12:27:00,
2013-06-01 07:32:00,55.5,54.7,29.57,SSW,210,4.0,4.0,97,0.00,,,0.00,Wunderground v.1.15,2013-06-01 12:32:00,
2013-06-01 07:37:00,55.7,54.9,29.57,SW,232,2.0,4.0,97,0.00,,,0.00,Wunderground v.1.15,2013-06-01 12:37:00,
2013-06-01 07:42:00,55.8,55.0,29.57,SW,219,3.0,3.0,97,0.00,,,0.00,Wunderground v.1.15,2013-06-01 12:42:00,
2013-06-01 07:47:00,56.1,55.3,29.58,WSW,240,1.0,4.0,97,0.00,,,0.00,Wunderground v.1.15,2013-06-01 12:47:00,
2013-06-01 07:52:00,56.3,55.5,29.58,SW,223,4.0,4.0,97,0.00,,,0.00,Wunderground v.1.15,2013-06-01 12:52:00,
2013-06-01 07:57:00,56.5,55.7,29.58,WSW,248,2.0,4.0,97,0.00,,,0.00,Wunderground v.1.15,2013-06-01 12:57:00,
2013-06-01 08:02:00,56.7,55.9,29.58,WSW,248,5.0,5.0,97,0.00,,,0.00,Wunderground v.1.15,2013-06-01 13:02:00,
2013-06-01 08:07:00,56.8,56.0,29.58,WSW,240,4.0,6.0,97,0.00,,,0.00,Wunderground v.1.15,2013-06-01 13:07:00,
2013-06-01 08:12:00,56.9,56.1,29.58,WSW,250,5.0,5.0,97,0.00,,,0.00,Wunderground v.1.15,2013-06-01 13:12:00,
2013-06-01 08:17:00,57.1,56.0,29.58,WSW,237,6.0,8.0,96,0.00,,,0.00,Wunderground v.1.15,2013-06-01 13:17:00,
2013-06-01 08:22:00,57.3,56.2,29.59,West,261,4.0,5.0,96,0.00,,,0.00,Wunderground v.1.15,2013-06-01 13:22:00,
2013-06-01 08:27:00,57.6,56.5,29.58,WSW,250,5.0,8.0,96,0.00,,,0.00,Wunderground v.1.15,2013-06-01 13:27:00,
2013-06-01 08:32:00,57.8,56.7,29.59,WSW,252,8.0,8.0,96,0.00,,,0.00,Wunderground v.1.15,2013-06-01 13:32:00,
2013-06-01 08:37:00,57.9,56.8,29.59,West,265,6.0,9.0,96,0.00,,,0.00,Wunderground v.1.15,2013-06-01 13:37:00,
2013-06-01 08:42:00,58.2,56.8,29.59,WSW,256,7.0,7.0,95,0.00,,,0.00,Wunderground v.1.15,2013-06-01 13:42:00,
2013-06-01 08:47:00,58.4,57.0,29.59,WSW,253,5.0,9.0,95,0.00,,,0.00,Wunderground v.1.15,2013-06-01 13:47:00,
2013-06-01 08:52:00,58.6,56.9,29.60,West,273,6.0,6.0,94,0.00,,,0.00,Wunderground v.1.15,2013-06-01 13:52:00,
2013-06-01 08:57:00,58.7,57.0,29.60,WNW,290,7.0,10.0,94,0.00,,,0.00,Wunderground v.1.15,2013-06-01 13:57:00,
2013-06-01 09:02:00,58.9,57.2,29.60,West,281,8.0,8.0,94,0.00,,,0.00,Wunderground v.1.15,2013-06-01 14:02:00,
2013-06-01 09:07:00,59.6,57.6,29.60,West,273,9.0,11.0,93,0.00,,,0.00,Wunderground v.1.15,2013-06-01 14:07:00,
2013-06-01 09:12:00,60.1,57.5,29.60,WNW,288,10.0,10.0,91,0.00,,,0.00,Wunderground v.1.15,2013-06-01 14:12:00,
2013-06-01 09:17:00,60.3,57.4,29.60,WNW,293,8.0,11.0,90,0.00,,,0.00,Wunderground v.1.15,2013-06-01 14:17:00,
2013-06-01 09:22:00,60.5,57.6,29.61,WNW,300,8.0,9.0,90,0.00,,,0.00,Wunderground v.1.15,2013-06-01 14:22:00,
2013-06-01 09:27:00,60.7,57.4,29.61,NW,315,8.0,12.0,89,0.00,,,0.00,Wunderground v.1.15,2013-06-01 14:27:00,
2013-06-01 09:32:00,61.0,57.4,29.61,NW,321,9.0,11.0,88,0.00,,,0.00,Wunderground v.1.15,2013-06-01 14:32:00,
2013-06-01 09:37:00,61.0,57.4,29.61,NW,319,10.0,12.0,88,0.00,,,0.00,Wunderground v.1.15,2013-06-01 14:37:00,
2013-06-01 09:42:00,61.2,57.6,29.61,NW,315,10.0,10.0,88,0.00,,,0.00,Wunderground v.1.15,2013-06-01 14:42:00,
2013-06-01 09:47:00,61.3,57.1,29.61,NW,313,11.0,12.0,86,0.00,,,0.00,Wunderground v.1.15,2013-06-01 14:47:00,
2013-06-01 09:52:00,61.3,57.4,29.61,WNW,290,5.0,9.0,87,0.00,,,0.00,Wunderground v.1.15,2013-06-01 14:52:00,
2013-06-01 09:57:00,61.4,57.2,29.61,NW,305,10.0,13.0,86,0.00,,,0.00,Wunderground v.1.15,2013-06-01 14:57:00,
2013-06-01 10:02:00,61.6,57.0,29.62,NW,322,10.0,10.0,85,0.00,,,0.00,Wunderground v.1.15,2013-06-01 15:02:00,
2013-06-01 10:07:00,61.5,56.9,29.62,NNW,328,10.0,14.0,85,0.00,,,0.00,Wunderground v.1.15,2013-06-01 15:07:00,
2013-06-01 10:12:00,61.4,57.2,29.62,NNW,340,12.0,12.0,86,0.00,,,0.00,Wunderground v.1.15,2013-06-01 15:12:00,
2013-06-01 10:17:00,61.5,56.9,29.62,NNW,336,12.0,14.0,85,0.00,,,0.00,Wunderground v.1.15,2013-06-01 15:17:00,
2013-06-01 10:22:00,61.4,57.2,29.62,NW,326,9.0,10.0,86,0.00,,,0.00,Wunderground v.1.15,2013-06-01 15:22:00,
2013-06-01 10:27:00,61.3,57.1,29.62,NW,321,9.0,12.0,86,0.00,,,0.00,Wunderground v.1.15,2013-06-01 15:27:00,
2013-06-01 10:32:00,61.2,57.0,29.63,WNW,302,9.0,10.0,86,0.00,,,0.00,Wunderground v.1.15,2013-06-01 15:32:00,
2013-06-01 10:37:00,61.4,57.8,29.63,NW,312,8.0,12.0,88,0.00,,,0.00,Wunderground v.1.15,2013-06-01 15:37:00,
2013-06-01 10:42:00,61.4,57.5,29.63,WNW,297,12.0,12.0,87,0.00,,,0.00,Wunderground v.1.15,2013-06-01 15:42:00,
2013-06-01 10:47:00,61.2,57.3,29.63,NW,324,9.0,13.0,87,0.00,,,0.00,Wunderground v.1.15,2013-06-01 15:47:00,
2013-06-01 10:52:00,61.1,57.2,29.63,NW,318,10.0,12.0,87,0.00,,,0.00,Wunderground v.1.15,2013-06-01 15:52:00,
2013-06-01 10:57:00,61.0,57.1,29.63,NNW,333,12.0,15.0,87,0.00,,,0.00,Wunderground v.1.15,2013-06-01 15:57:00,
2013-06-01 11:02:00,61.1,57.2,29.63,NNW,335,8.0,12.0,87,0.00,,,0.00,Wunderground v.1.15,2013-06-01 16:02:00,
2013-06-01 11:07:00,61.1,57.2,29.64,NW,318,11.0,18.0,87,0.00,,,0.00,Wunderground v.1.15,2013-06-01 16:07:00,
2013-06-01 11:12:00,61.1,57.5,29.64,NW,323,14.0,14.0,88,0.00,,,0.00,Wunderground v.1.15,2013-06-01 16:12:00,
2013-06-01 11:17:00,61.6,58.0,29.64,NNW,329,13.0,14.0,88,0.00,,,0.00,Wunderground v.1.15,2013-06-01 16:17:00,
2013-06-01 11:22:00,62.5,58.3,29.64,NW,311,13.0,13.0,86,0.00,,,0.00,Wunderground v.1.15,2013-06-01 16:22:00,
2013-06-01 11:27:00,63.2,58.3,29.64,NNW,331,12.0,15.0,84,0.00,,,0.00,Wunderground v.1.15,2013-06-01 16:27:00,
2013-06-01 11:32:00,63.1,57.9,29.65,NW,319,11.0,14.0,83,0.00,,,0.00,Wunderground v.1.15,2013-06-01 16:32:00,
2013-06-01 11:37:00,62.8,57.9,29.65,NW,320,13.0,16.0,84,0.00,,,0.00,Wunderground v.1.15,2013-06-01 16:37:00,
2013-06-01 11:42:00,62.8,57.9,29.65,NW,313,12.0,16.0,84,0.00,,,0.00,Wunderground v.1.15,2013-06-01 16:42:00,
2013-06-01 11:47:00,62.9,58.3,29.65,NNW,340,12.0,20.0,85,0.00,,,0.00,Wunderground v.1.15,2013-06-01 16:47:00,
2013-06-01 11:52:00,62.5,58.6,29.66,NNW,336,13.0,17.0,87,0.00,,,0.00,Wunderground v.1.15,2013-06-01 16:52:00,
2013-06-01 11:57:00,62.0,59.0,29.66,North,355,14.0,19.0,90,0.00,,,0.00,Wunderground v.1.15,2013-06-01 16:57:00,
2013-06-01 12:02:00,61.8,59.1,29.66,NNW,337,18.0,18.0,91,0.00,,,0.00,Wunderground v.1.15,2013-06-01 17:02:00,
2013-06-01 12:07:00,61.5,58.5,29.66,NNW,344,16.0,21.0,90,0.00,,,0.00,Wunderground v.1.15,2013-06-01 17:07:00,
2013-06-01 12:12:00,61.2,58.6,29.67,North,355,15.0,18.0,91,0.00,,,0.00,Wunderground v.1.15,2013-06-01 17:12:00,
2013-06-01 12:17:00,60.9,58.6,29.67,NW,325,16.0,19.0,92,0.00,,,0.00,Wunderground v.1.15,2013-06-01 17:17:00,
2013-06-01 12:23:00,61.0,58.4,29.67,NNW,327,16.0,17.0,91,0.00,,,0.00,Wunderground v.1.15,2013-06-01 17:23:00,
2013-06-01 12:28:00,60.9,57.6,29.67,NNW,336,15.0,22.0,89,0.00,,,0.00,Wunderground v.1.15,2013-06-01 17:28:00,
2013-06-01 12:33:00,60.6,57.7,29.68,NNW,330,15.0,22.0,90,0.00,,,0.00,Wunderground v.1.15,2013-06-01 17:33:00,
2013-06-01 12:38:00,60.7,57.4,29.68,NNW,346,20.0,22.0,89,0.00,,,0.00,Wunderground v.1.15,2013-06-01 17:38:00,
2013-06-01 12:43:00,60.7,56.8,29.68,NNW,336,20.0,24.0,87,0.00,,,0.00,Wunderground v.1.15,2013-06-01 17:43:00,
2013-06-01 12:48:00,60.9,57.0,29.68,NNW,337,16.0,24.0,87,0.00,,,0.00,Wunderground v.1.15,2013-06-01 17:48:00,
2013-06-01 12:53:00,61.3,57.4,29.69,NW,324,16.0,22.0,87,0.00,,,0.00,Wunderground v.1.15,2013-06-01 17:53:00,
2013-06-01 12:58:00,61.2,57.0,29.69,NNW,332,22.0,24.0,86,0.00,,,0.00,Wunderground v.1.15,2013-06-01 17:58:00,
2013-06-01 13:03:00,60.9,56.4,29.69,NNW,329,20.0,21.0,85,0.00,,,0.00,Wunderground v.1.15,2013-06-01 18:03:00,
2013-06-01 13:08:00,60.9,56.4,29.69,NNW,334,17.0,23.0,85,0.00,,,0.00,Wunderground v.1.15,2013-06-01 18:08:00,
2013-06-01 13:13:00,61.0,56.5,29.69,NW,321,21.0,21.0,85,0.00,,,0.00,Wunderground v.1.15,2013-06-01 18:13:00,
2013-06-01 13:18:00,61.1,56.2,29.70,NW,317,20.0,23.0,84,0.00,,,0.00,Wunderground v.1.15,2013-06-01 18:18:00,
2013-06-01 13:23:00,61.1,56.6,29.70,WNW,300,13.0,18.0,85,0.00,,,0.00,Wunderground v.1.15,2013-06-01 18:23:00,
2013-06-01 13:28:00,60.9,56.0,29.70,NNW,328,22.0,22.0,84,0.00,,,0.00,Wunderground v.1.15,2013-06-01 18:28:00,
2013-06-01 13:33:00,60.9,56.4,29.70,NW,326,20.0,22.0,85,0.00,,,0.00,Wunderground v.1.15,2013-06-01 18:33:00,
2013-06-01 13:38:00,60.7,55.8,29.70,NNW,331,12.0,25.0,84,0.00,,,0.00,Wunderground v.1.15,2013-06-01 18:38:00,
2013-06-01 13:43:00,60.9,56.0,29.71,NNW,336,17.0,20.0,84,0.00,,,0.00,Wunderground v.1.15,2013-06-01 18:43:00,
2013-06-01 13:48:00,60.9,56.0,29.71,NNW,346,14.0,22.0,84,0.00,,,0.00,Wunderground v.1.15,2013-06-01 18:48:00,
2013-06-01 13:53:00,61.0,56.1,29.71,NNW,340,18.0,21.0,84,0.00,,,0.00,Wunderground v.1.15,2013-06-01 18:53:00,
2013-06-01 13:59:00,61.6,57.0,29.71,NNW,338,20.0,23.0,85,0.00,,,0.00,Wunderground v.1.15,2013-06-01 18:59:00,
2013-06-01 14:04:00,62.5,56.9,29.71,NNW,343,14.0,22.0,82,0.00,,,0.00,Wunderground v.1.15,2013-06-01 19:04:00,
2013-06-01 14:09:00,62.9,56.6,29.71,NW,320,19.0,22.0,80,0.00,,,0.00,Wunderground v.1.15,2013-06-01 19:09:00,
2013-06-01 14:14:00,62.9,56.6,29.72,NNW,342,19.0,24.0,80,0.00,,,0.00,Wunderground v.1.15,2013-06-01 19:14:00,
2013-06-01 14:19:00,63.1,56.5,29.72,NNW,329,17.0,24.0,79,0.00,,,0.00,Wunderground v.1.15,2013-06-01 19:19:00,
2013-06-01 14:24:00,63.0,56.4,29.72,NNW,327,14.0,24.0,79,0.00,,,0.00,Wunderground v.1.15,2013-06-01 19:24:00,
2013-06-01 14:29:00,62.8,56.2,29.72,NW,325,22.0,24.0,79,0.00,,,0.00,Wunderground v.1.15,2013-06-01 19:29:00,
2013-06-01 14:34:00,62.9,55.9,29.72,NNW,336,20.0,24.0,78,0.00,,,0.00,Wunderground v.1.15,2013-06-01 19:34:00,
2013-06-01 14:39:00,62.8,56.2,29.73,NW,325,25.0,25.0,79,0.00,,,0.00,Wunderground v.1.15,2013-06-01 19:39:00,
2013-06-01 14:44:00,62.7,55.4,29.73,NW,323,19.0,25.0,77,0.00,,,0.00,Wunderground v.1.15,2013-06-01 19:44:00,
2013-06-01 14:49:00,62.4,55.4,29.73,NNW,334,22.0,25.0,78,0.00,,,0.00,Wunderground v.1.15,2013-06-01 19:49:00,
2013-06-01 14:54:00,62.6,54.9,29.74,NW,320,15.0,24.0,76,0.00,,,0.00,Wunderground v.1.15,2013-06-01 19:54:00,
2013-06-01 14:59:00,62.4,55.1,29.74,NNW,332,17.0,27.0,77,0.00,,,0.00,Wunderground v.1.15,2013-06-01 19:59:00,
2013-06-01 15:04:00,62.1,54.8,29.74,NNW,339,23.0,24.0,77,0.00,,,0.00,Wunderground v.1.15,2013-06-01 20:04:00,
2013-06-01 15:09:00,62.0,55.4,29.74,NW,319,17.0,24.0,79,0.00,,,0.00,Wunderground v.1.15,2013-06-01 20:09:00,
2013-06-01 15:15:00,62.0,54.7,29.74,NW,321,21.0,26.0,77,0.00,,,0.00,Wunderground v.1.15,2013-06-01 20:15:00,
2013-06-01 15:20:00,61.8,54.5,29.75,NNW,327,17.0,27.0,77,0.00,,,0.00,Wunderground v.1.15,2013-06-01 20:20:00,
2013-06-01 15:25:00,61.5,54.2,29.75,NNW,331,19.0,24.0,77,0.00,,,0.00,Wunderground v.1.15,2013-06-01 20:25:00,
2013-06-01 15:30:00,61.3,54.0,29.75,NNW,337,16.0,24.0,77,0.00,,,0.00,Wunderground v.1.15,2013-06-01 20:30:00,
2013-06-01 15:35:00,60.9,53.6,29.76,WNW,299,18.0,24.0,77,0.00,,,0.00,Wunderground v.1.15,2013-06-01 20:35:00,
2013-06-01 15:40:00,61.0,54.1,29.76,WNW,300,15.0,25.0,78,0.00,,,0.00,Wunderground v.1.15,2013-06-01 20:40:00,
2013-06-01 15:45:00,60.9,53.6,29.76,NW,323,20.0,24.0,77,0.00,,,0.00,Wunderground v.1.15,2013-06-01 20:45:00,
2013-06-01 15:50:00,61.0,54.1,29.76,NW,317,22.0,25.0,78,0.00,,,0.00,Wunderground v.1.15,2013-06-01 20:50:00,
2013-06-01 15:55:00,61.1,53.5,29.76,NW,319,22.0,28.0,76,0.00,,,0.00,Wunderground v.1.15,2013-06-01 20:55:00,
2013-06-01 16:00:00,61.0,53.4,29.77,NW,319,24.0,29.0,76,0.00,,,0.00,Wunderground v.1.15,2013-06-01 21:00:00,
2013-06-01 16:05:00,60.4,53.2,29.77,NW,319,13.0,25.0,77,0.00,,,0.00,Wunderground v.1.15,2013-06-01 21:05:00,
2013-06-01 16:10:00,59.9,52.7,29.77,NW,321,21.0,28.0,77,0.00,,,0.00,Wunderground v.1.15,2013-06-01 21:10:00,
2013-06-01 16:15:00,59.5,52.3,29.77,NNW,331,17.0,27.0,77,0.00,,,0.00,Wunderground v.1.15,2013-06-01 21:15:00,
2013-06-01 16:20:00,59.3,52.1,29.77,NW,306,21.0,27.0,77,0.00,,,0.00,Wunderground v.1.15,2013-06-01 21:20:00,
2013-06-01 16:25:00,59.2,52.0,29.78,NW,310,19.0,25.0,77,0.00,,,0.00,Wunderground v.1.15,2013-06-01 21:25:00,
2013-06-01 16:30:00,58.9,51.7,29.78,NW,313,20.0,27.0,77,0.00,,,0.00,Wunderground v.1.15,2013-06-01 21:30:00,
2013-06-01 16:35:00,58.7,51.5,29.78,NW,324,23.0,28.0,77,0.00,,,0.00,Wunderground v.1.15,2013-06-01 21:35:00,
2013-06-01 16:40:00,58.5,51.7,29.78,NW,320,18.0,28.0,78,0.00,,,0.00,Wunderground v.1.15,2013-06-01 21:40:00,
2013-06-01 16:45:00,58.5,51.7,29.78,NNW,337,21.0,26.0,78,0.00,,,0.00,Wunderground v.1.15,2013-06-01 21:45:00,
2013-06-01 16:50:00,58.4,51.6,29.78,NNW,335,20.0,27.0,78,0.00,,,0.00,Wunderground v.1.15,2013-06-01 21:50:00,
2013-06-01 16:55:00,58.5,51.7,29.79,NNW,335,17.0,24.0,78,0.00,,,0.00,Wunderground v.1.15,2013-06-01 21:55:00,
2013-06-01 17:00:00,58.6,51.4,29.79,NW,321,19.0,27.0,77,0.00,,,0.00,Wunderground v.1.15,2013-06-01 22:00:00,
2013-06-01 17:05:00,58.2,51.4,29.80,NW,313,24.0,28.0,78,0.00,,,0.00,Wunderground v.1.15,2013-06-01 22:05:00,
2013-06-01 17:10:00,58.0,51.2,29.80,NW,311,20.0,28.0,78,0.00,,,0.00,Wunderground v.1.15,2013-06-01 22:10:00,
2013-06-01 17:16:00,57.9,50.7,29.80,NW,319,19.0,28.0,77,0.00,,,0.00,Wunderground v.1.15,2013-06-01 22:16:00,
2013-06-01 17:21:00,57.6,50.4,29.81,NNW,333,20.0,28.0,77,0.00,,,0.00,Wunderground v.1.15,2013-06-01 22:21:00,
2013-06-01 17:26:00,57.6,50.8,29.81,NNW,330,18.0,24.0,78,0.00,,,0.00,Wunderground v.1.15,2013-06-01 22:26:00,
2013-06-01 17:31:00,57.8,50.6,29.81,NW,321,23.0,29.0,77,0.00,,,0.00,Wunderground v.1.15,2013-06-01 22:31:00,
2013-06-01 17:36:00,57.8,50.3,29.81,NNW,329,23.0,26.0,76,0.00,,,0.00,Wunderground v.1.15,2013-06-01 22:36:00,
2013-06-01 17:41:00,57.7,50.5,29.81,NNW,327,21.0,26.0,77,0.00,,,0.00,Wunderground v.1.15,2013-06-01 22:41:00,
2013-06-01 17:46:00,57.5,50.0,29.81,NW,326,22.0,29.0,76,0.00,,,0.00,Wunderground v.1.15,2013-06-01 22:46:00,
2013-06-01 17:51:00,57.3,50.1,29.81,NNW,333,22.0,29.0,77,0.00,,,0.00,Wunderground v.1.15,2013-06-01 22:51:00,
2013-06-01 17:56:00,57.1,50.0,29.82,NNW,332,19.0,27.0,77,0.00,,,0.00,Wunderground v.1.15,2013-06-01 22:56:00,
2013-06-01 18:01:00,56.9,49.8,29.81,NNW,331,21.0,27.0,77,0.00,,,0.00,Wunderground v.1.15,2013-06-01 23:01:00,
2013-06-01 18:06:00,56.8,50.4,29.82,NW,318,16.0,26.0,79,0.00,,,0.00,Wunderground v.1.15,2013-06-01 23:06:00,
2013-06-01 18:11:00,56.9,49.8,29.82,NNW,329,21.0,26.0,77,0.00,,,0.00,Wunderground v.1.15,2013-06-01 23:11:00,
2013-06-01 18:16:00,56.8,49.7,29.82,NW,323,18.0,28.0,77,0.00,,,0.00,Wunderground v.1.15,2013-06-01 23:16:00,
2013-06-01 18:21:00,56.5,49.4,29.82,NW,325,17.0,28.0,77,0.00,,,0.00,Wunderground v.1.15,2013-06-01 23:21:00,
2013-06-01 18:26:00,56.3,49.2,29.83,NW,321,23.0,28.0,77,0.00,,,0.00,Wunderground v.1.15,2013-06-01 23:26:00,
2013-06-01 18:31:00,56.0,49.2,29.83,NW,308,17.0,28.0,78,0.00,,,0.00,Wunderground v.1.15,2013-06-01 23:31:00,
2013-06-01 18:36:00,55.5,49.1,29.83,NW,315,21.0,28.0,79,0.00,,,0.00,Wunderground v.1.15,2013-06-01 23:36:00,
2013-06-01 18:41:00,55.2,48.8,29.84,NW,313,21.0,28.0,79,0.00,,,0.00,Wunderground v.1.15,2013-06-01 23:41:00,
2013-06-01 18:46:00,55.0,48.6,29.84,NW,317,22.0,25.0,79,0.00,,,0.00,Wunderground v.1.15,2013-06-01 23:46:00,
2013-06-01 18:51:00,55.0,48.6,29.84,NNW,338,16.0,27.0,79,0.00,,,0.00,Wunderground v.1.15,2013-06-01 23:51:00,
2013-06-01 18:56:00,54.9,48.5,29.84,NNW,334,21.0,27.0,79,0.00,,,0.00,Wunderground v.1.15,2013-06-01 23:56:00,
2013-06-01 19:02:00,54.8,48.7,29.85,NW,325,19.0,27.0,80,0.00,,,0.00,Wunderground v.1.15,2013-06-02 00:02:00,
2013-06-01 19:07:00,54.7,48.6,29.85,NNW,331,17.0,26.0,80,0.00,,,0.00,Wunderground v.1.15,2013-06-02 00:07:00,
2013-06-01 19:12:00,54.6,48.6,29.85,NW,325,16.0,26.0,80,0.00,,,0.00,Wunderground v.1.15,2013-06-02 00:12:00,
2013-06-01 19:17:00,54.4,48.4,29.85,NW,311,22.0,24.0,80,0.00,,,0.00,Wunderground v.1.15,2013-06-02 00:17:00,
2013-06-01 19:23:00,54.0,48.0,29.86,NW,319,21.0,22.0,80,0.00,,,0.00,Wunderground v.1.15,2013-06-02 00:23:00,
2013-06-01 19:28:00,54.0,48.0,29.86,NNW,338,15.0,22.0,80,0.00,,,0.00,Wunderground v.1.15,2013-06-02 00:28:00,
2013-06-01 19:33:00,54.0,48.3,29.86,NNW,331,21.0,23.0,81,0.00,,,0.00,Wunderground v.1.15,2013-06-02 00:33:00,
2013-06-01 19:38:00,54.0,48.3,29.86,NW,315,23.0,23.0,81,0.00,,,0.00,Wunderground v.1.15,2013-06-02 00:38:00,
2013-06-01 19:43:00,53.9,48.2,29.87,NNW,332,16.0,20.0,81,0.00,,,0.00,Wunderground v.1.15,2013-06-02 00:43:00,
2013-06-01 19:48:00,53.8,47.8,29.87,NW,317,17.0,24.0,80,0.00,,,0.00,Wunderground v.1.15,2013-06-02 00:48:00,
2013-06-01 19:53:00,53.7,47.7,29.88,NW,311,24.0,24.0,80,0.00,,,0.00,Wunderground v.1.15,2013-06-02 00:53:00,
2013-06-01 19:58:00,53.6,47.6,29.88,NW,322,19.0,24.0,80,0.00,,,0.00,Wunderground v.1.15,2013-06-02 00:58:00,
2013-06-01 20:03:00,53.6,47.6,29.88,NNW,339,16.0,21.0,80,0.00,,,0.00,Wunderground v.1.15,2013-06-02 01:03:00,
2013-06-01 20:08:00,53.7,47.3,29.88,NNW,327,18.0,23.0,79,0.00,,,0.00,Wunderground v.1.15,2013-06-02 01:08:00,
2013-06-01 20:13:00,53.7,47.7,29.88,NNW,331,17.0,17.0,80,0.00,,,0.00,Wunderground v.1.15,2013-06-02 01:13:00,
2013-06-01 20:18:00,53.7,47.3,29.89,NNW,331,20.0,23.0,79,0.00,,,0.00,Wunderground v.1.15,2013-06-02 01:18:00,
2013-06-01 20:23:00,53.7,47.3,29.89,NNW,342,20.0,20.0,79,0.00,,,0.00,Wunderground v.1.15,2013-06-02 01:23:00,
2013-06-01 20:28:00,53.7,47.3,29.89,NNW,331,16.0,22.0,79,0.00,,,0.00,Wunderground v.1.15,2013-06-02 01:28:00,
2013-06-01 20:33:00,53.7,47.3,29.89,NNW,330,21.0,21.0,79,0.00,,,0.00,Wunderground v.1.15,2013-06-02 01:33:00,
2013-06-01 20:38:00,53.6,47.6,29.89,NW,320,16.0,23.0,80,0.00,,,0.00,Wunderground v.1.15,2013-06-02 01:38:00,
2013-06-01 20:43:00,53.5,47.5,29.89,NNW,341,19.0,23.0,80,0.00,,,0.00,Wunderground v.1.15,2013-06-02 01:43:00,
2013-06-01 20:48:00,53.5,47.5,29.89,NNW,333,20.0,23.0,80,0.00,,,0.00,Wunderground v.1.15,2013-06-02 01:48:00,
2013-06-01 20:53:00,53.4,47.4,29.89,NNW,329,23.0,23.0,80,0.00,,,0.00,Wunderground v.1.15,2013-06-02 01:53:00,
2013-06-01 20:58:00,53.4,47.4,29.89,North,349,19.0,24.0,80,0.00,,,0.00,Wunderground v.1.15,2013-06-02 01:58:00,
2013-06-01 21:03:00,53.4,47.4,29.89,NNW,344,25.0,25.0,80,0.00,,,0.00,Wunderground v.1.15,2013-06-02 02:03:00,
2013-06-01 21:08:00,53.3,47.3,29.89,NNW,343,20.0,25.0,80,0.00,,,0.00,Wunderground v.1.15,2013-06-02 02:08:00,
2013-06-01 21:13:00,53.3,47.3,29.89,NNW,334,18.0,19.0,80,0.00,,,0.00,Wunderground v.1.15,2013-06-02 02:13:00,
2013-06-01 21:18:00,53.3,47.3,29.90,North,355,20.0,23.0,80,0.00,,,0.00,Wunderground v.1.15,2013-06-02 02:18:00,
2013-06-01 21:23:00,53.3,47.3,29.90,NW,325,13.0,19.0,80,0.00,,,0.00,Wunderground v.1.15,2013-06-02 02:23:00,
2013-06-01 21:28:00,53.3,47.3,29.90,North,350,13.0,22.0,80,0.00,,,0.00,Wunderground v.1.15,2013-06-02 02:28:00,
2013-06-01 21:33:00,53.3,47.3,29.90,NNW,347,13.0,16.0,80,0.00,,,0.00,Wunderground v.1.15,2013-06-02 02:33:00,
2013-06-01 21:38:00,53.3,47.0,29.91,NNW,338,15.0,23.0,79,0.00,,,0.00,Wunderground v.1.15,2013-06-02 02:38:00,
2013-06-01 21:43:00,53.4,47.0,29.91,North,349,17.0,19.0,79,0.00,,,0.00,Wunderground v.1.15,2013-06-02 02:43:00,
2013-06-01 21:48:00,53.4,46.7,29.92,NNW,347,16.0,19.0,78,0.00,,,0.00,Wunderground v.1.15,2013-06-02 02:48:00,
2013-06-01 21:53:00,53.4,46.7,29.92,NNW,335,20.0,21.0,78,0.00,,,0.00,Wunderground v.1.15,2013-06-02 02:53:00,
2013-06-01 21:58:00,53.4,46.7,29.92,North,355,16.0,21.0,78,0.00,,,0.00,Wunderground v.1.15,2013-06-02 02:58:00,
2013-06-01 22:03:00,53.4,47.0,29.92,North,350,16.0,18.0,79,0.00,,,0.00,Wunderground v.1.15,2013-06-02 03:03:00,
2013-06-01 22:08:00,53.3,47.0,29.93,NNW,344,11.0,19.0,79,0.00,,,0.00,Wunderground v.1.15,2013-06-02 03:08:00,
2013-06-01 22:13:00,53.3,47.0,29.93,North,355,15.0,16.0,79,0.00,,,0.00,Wunderground v.1.15,2013-06-02 03:13:00,
2013-06-01 22:18:00,53.2,46.9,29.94,NNW,344,15.0,16.0,79,0.00,,,0.00,Wunderground v.1.15,2013-06-02 03:18:00,
2013-06-01 22:23:00,53.2,46.9,29.94,NNW,332,13.0,16.0,79,0.00,,,0.00,Wunderground v.1.15,2013-06-02 03:23:00,
2013-06-01 22:28:00,53.2,46.9,29.94,NNW,335,13.0,17.0,79,0.00,,,0.00,Wunderground v.1.15,2013-06-02 03:28:00,
2013-06-01 22:33:00,53.2,47.2,29.94,NNW,342,12.0,14.0,80,0.00,,,0.00,Wunderground v.1.15,2013-06-02 03:33:00,
2013-06-01 22:38:00,53.1,47.1,29.94,NNW,341,15.0,15.0,80,0.00,,,0.00,Wunderground v.1.15,2013-06-02 03:38:00,
2013-06-01 22:43:00,53.1,47.4,29.94,North,350,15.0,18.0,81,0.00,,,0.00,Wunderground v.1.15,2013-06-02 03:43:00,
2013-06-01 22:48:00,53.0,47.0,29.94,NNW,339,13.0,20.0,80,0.00,,,0.00,Wunderground v.1.15,2013-06-02 03:48:00,
2013-06-01 22:53:00,53.0,47.0,29.95,NNW,343,18.0,23.0,80,0.00,,,0.00,Wunderground v.1.15,2013-06-02 03:53:00,
2013-06-01 22:58:00,53.0,47.3,29.95,NNW,341,15.0,23.0,81,0.00,,,0.00,Wunderground v.1.15,2013-06-02 03:58:00,
2013-06-01 23:01:00,53.0,47.3,29.95,NNW,343,18.0,23.0,81,0.00,,,0.00,Wunderground v.1.15,2013-06-02 04:01:00,
2013-06-01 23:06:00,52.8,47.1,29.95,NNW,338,20.0,23.0,81,0.00,,,0.00,Wunderground v.1.15,2013-06-02 04:06:00,
2013-06-01 23:11:00,52.7,47.0,29.95,NNW,333,15.0,23.0,81,0.00,,,0.00,Wunderground v.1.15,2013-06-02 04:11:00,
2013-06-01 23:16:00,52.6,47.3,29.96,NNW,334,16.0,22.0,82,0.00,,,0.00,Wunderground v.1.15,2013-06-02 04:16:00,
2013-06-01 23:21:00,52.4,47.7,29.96,NNW,334,17.0,22.0,84,0.00,,,0.00,Wunderground v.1.15,2013-06-02 04:21:00,
2013-06-01 23:26:00,52.0,47.6,29.96,NNW,343,20.0,22.0,85,0.00,,,0.00,Wunderground v.1.15,2013-06-02 04:26:00,
2013-06-01 23:31:00,51.7,47.3,29.97,NNW,333,16.0,22.0,85,0.00,,,0.00,Wunderground v.1.15,2013-06-02 04:31:00,
2013-06-01 23:36:00,51.6,47.5,29.97,NNW,341,14.0,22.0,86,0.00,,,0.00,Wunderground v.1.15,2013-06-02 04:36:00,
2013-06-01 23:41:00,51.5,47.1,29.97,North,355,17.0,22.0,85,0.00,,,0.00,Wunderground v.1.15,2013-06-02 04:41:00,
2013-06-01 23:47:00,51.5,47.1,29.97,NNW,331,16.0,20.0,85,0.00,,,0.00,Wunderground v.1.15,2013-06-02 04:47:00,
2013-06-01 23:52:00,51.6,47.2,29.97,NW,321,15.0,20.0,85,0.00,,,0.00,Wunderground v.1.15,2013-06-02 04:52:00,
2013-06-01 23:57:00,51.5,47.1,29.97,North,360,16.0,21.0,85,0.00,,,0.00,Wunderground v.1.15,2013-06-02 04:57:00,